Csl Melbourne — 8PWP — position and weather

sailwx.info

Track history (hours):
 
Tides and Currents Weather Stations Pressure Air Temp Water Temp Dewpoint Dewpoint Depression Visibility Wind Speed Wind Dir Waves Ship Positions

Csl Melbourne

Last reported at 2014-Nov-16 12:32 UTC. Time now 2014-Nov-26 14:00 UTC.
Position S 23°52' E 151°36'.
Warning: this ship's position is 10 days out of date.

Length 187 m; draft 6.4 m.

Type: Cargo ship. MMSI: 314317000.

Date/timePositionNaut miles runAvg speedWind from/ knotsBaromVisibWave heightAir tempDewpointWater temp
2014-Nov-16 12:32S 23°52' E 151°36'0 0.1
2014-Nov-16 10:30S 23°52' E 151°36'7 7.0
2014-Nov-16 09:28S 23°53' E 151°44'1010.6
2014-Nov-16 08:33S 23°53' E 151°54'183 8.6
2014-Nov-15 11:09S 26°30' E 153°39'610.2
2014-Nov-15 10:33S 26°36' E 153°39'2110.3
2014-Nov-15 08:33S 26°57' E 153°39'1010.3
2014-Nov-15 07:33S 27°07' E 153°39'1010.3
2014-Nov-15 06:33S 27°17' E 153°40'1010.3
2014-Nov-15 05:33S 27°28' E 153°40'1010.2
2014-Nov-15 04:33S 27°38' E 153°41'1110.3
2014-Nov-15 03:30S 27°49' E 153°42'266 8.9
2014-Nov-13 21:32S 32°10' E 152°46'1010.3
2014-Nov-13 20:33S 32°20' E 152°42'1010.0
2014-Nov-13 19:33S 32°29' E 152°38'10 9.5
2014-Nov-13 18:33S 32°36' E 152°31'1111.1
2014-Nov-13 17:33S 32°44' E 152°21'1111.3
2014-Nov-13 16:33S 32°51' E 152°11'1211.8
2014-Nov-13 15:33S 32°55' E 151°58'9 8.9
2014-Nov-13 14:33S 32°55' E 151°47'2 0.2
2014-Nov-13 03:13S 32°54' E 151°46'0 0.0
2014-Nov-12 17:31S 32°54' E 151°46'0 0.0
2014-Nov-12 16:13S 32°54' E 151°46'0 0.0
2014-Nov-12 15:31S 32°54' E 151°46'0 0.0
2014-Nov-12 14:31S 32°54' E 151°46'0 0.0
2014-Nov-12 13:31S 32°54' E 151°46'0 0.0
2014-Nov-12 12:31S 32°54' E 151°46'0 0.0
2014-Nov-12 11:31S 32°54' E 151°46'0 0.0
2014-Nov-12 10:28S 32°54' E 151°46'0 0.0
2014-Nov-12 09:31S 32°54' E 151°46'0 0.0
2014-Nov-12 08:25S 32°54' E 151°46'0 0.0
2014-Nov-12 07:31S 32°54' E 151°46'0 0.0
2014-Nov-12 06:19S 32°54' E 151°46'0 0.0
2014-Nov-12 05:31S 32°54' E 151°46'0 0.0
2014-Nov-12 04:31S 32°54' E 151°46'0 0.0
2014-Nov-12 03:31S 32°54' E 151°46'0 0.0
2014-Nov-12 02:31S 32°54' E 151°46'0 0.0
2014-Nov-12 01:31S 32°54' E 151°46'0 0.0
2014-Nov-12 00:31S 32°54' E 151°46'0 0.0
2014-Nov-11 23:25S 32°54' E 151°46'0 0.0
2014-Nov-11 22:31S 32°54' E 151°46'0 0.0
2014-Nov-11 21:31S 32°54' E 151°46'0 0.0
2014-Nov-11 20:31S 32°54' E 151°46'0 0.0
2014-Nov-11 19:25S 32°54' E 151°46'0 0.0
2014-Nov-11 18:31S 32°54' E 151°46'0 0.0
2014-Nov-11 17:31S 32°54' E 151°46'0 0.0
2014-Nov-11 16:31S 32°54' E 151°46'0 0.0
2014-Nov-11 15:19S 32°54' E 151°46'0 0.0
2014-Nov-11 14:31S 32°54' E 151°46'0 0.0
2014-Nov-11 13:31S 32°54' E 151°46'0 0.0
2014-Nov-11 12:31S 32°54' E 151°46'0 0.0
2014-Nov-11 11:31S 32°54' E 151°46'0 0.0
2014-Nov-11 10:31S 32°54' E 151°46'0 0.0
2014-Nov-11 09:31S 32°54' E 151°46'0 0.0
2014-Nov-11 08:31S 32°54' E 151°46'0 0.0
2014-Nov-11 07:28S 32°54' E 151°46'0 0.0
2014-Nov-11 06:10S 32°54' E 151°46'0 0.0
2014-Nov-11 05:25S 32°54' E 151°46'0 0.0
2014-Nov-11 04:31S 32°54' E 151°46'0 0.0
2014-Nov-11 03:13S 32°54' E 151°46'0 0.0
2014-Nov-11 02:25S 32°54' E 151°46'0 0.0
2014-Nov-11 01:31S 32°54' E 151°46'0 0.0
2014-Nov-11 00:25S 32°54' E 151°46'0 0.0
2014-Nov-10 22:31S 32°54' E 151°46'0 0.0
2014-Nov-10 20:22S 32°54' E 151°46'0 0.0
2014-Nov-10 18:31S 32°54' E 151°46'0 0.0
2014-Nov-10 17:28S 32°54' E 151°46'0 0.0
2014-Nov-10 15:31S 32°54' E 151°46'0 0.0
2014-Nov-10 14:31S 32°54' E 151°46'0 0.0
2014-Nov-10 13:31S 32°54' E 151°46'0 0.0
2014-Nov-10 12:25S 32°54' E 151°46'0 0.0
2014-Nov-10 11:31S 32°54' E 151°46'0 0.0
2014-Nov-10 10:31S 32°54' E 151°46'0 0.0
2014-Nov-10 09:25S 32°54' E 151°46'0 0.0
2014-Nov-10 08:31S 32°54' E 151°46'0 0.0
2014-Nov-10 07:31S 32°54' E 151°46'0 0.0
2014-Nov-10 06:19S 32°54' E 151°46'0 0.0
2014-Nov-10 05:19S 32°54' E 151°46'0 0.0
2014-Nov-10 04:31S 32°54' E 151°46'0 0.0
2014-Nov-10 03:31S 32°54' E 151°46'0 0.0
2014-Nov-10 02:31S 32°54' E 151°46'0 0.0
2014-Nov-10 01:31S 32°54' E 151°46'0 0.0
2014-Nov-10 00:31S 32°54' E 151°46'0 0.0
2014-Nov-09 23:31S 32°54' E 151°46'0 0.0
2014-Nov-09 22:31S 32°54' E 151°46'0 0.0
2014-Nov-09 21:31S 32°54' E 151°46'0 0.0
2014-Nov-09 20:31S 32°54' E 151°46'0 0.0
2014-Nov-09 19:31S 32°54' E 151°46'0 0.3
2014-Nov-09 18:32S 32°54' E 151°46'5 4.9
2014-Nov-09 17:33S 32°56' E 151°51'6 6.3
2014-Nov-09 16:32S 32°55' E 151°59'1111.3
2014-Nov-09 15:33S 32°50' E 152°11'1312.6
2014-Nov-09 14:33S 32°43' E 152°23'1312.8
2014-Nov-09 13:33S 32°35' E 152°35'4112.3
2014-Nov-09 10:11S 31°60' E 153°00'812.1
2014-Nov-09 09:33S 31°53' E 153°04'1212.1
2014-Nov-09 08:33S 31°41' E 153°08'1212.3
2014-Nov-09 07:33S 31°29' E 153°13'21414.2
2014-Nov-08 16:30S 27°59' E 153°57'1613.3
2014-Nov-08 15:18S 27°43' E 153°56'1013.1
2014-Nov-08 14:32S 27°33' E 153°55'1313.2
2014-Nov-08 13:33S 27°20' E 153°53'1313.1
2014-Nov-08 12:34S 27°07' E 153°51'1312.5
2014-Nov-08 11:31S 26°54' E 153°50'1111.8
2014-Nov-08 10:33S 26°43' E 153°49'1211.6
2014-Nov-08 09:33S 26°31' E 153°48'1211.8
2014-Nov-08 08:33S 26°19' E 153°46'1211.7
2014-Nov-08 07:33S 26°08' E 153°45'1211.9
2014-Nov-08 06:33S 25°56' E 153°44'1312.3
2014-Nov-08 05:32S 25°43' E 153°42'1212.2
2014-Nov-08 04:32S 25°31' E 153°41'  
Track history (hours):
 
Tides and Currents Weather Stations Pressure Air Temp Water Temp Dewpoint Dewpoint Depression Visibility Wind Speed Wind Dir Waves Ship Positions

Csl Melbourne

Last reported at 2014-Nov-16 12:32 UTC. Time now 2014-Nov-26 14:00 UTC.
Position S 23°52' E 151°36'.
Warning: this ship's position is 10 days out of date.

Length 187 m; draft 6.4 m.

Type: Cargo ship. MMSI: 314317000.

Date/timePositionNaut miles runAvg speedWind from/ knotsBaromVisibWave heightAir tempDewpointWater temp
2014-Nov-16 12:32S 23°52' E 151°36'0 0.1
2014-Nov-16 10:30S 23°52' E 151°36'7 7.0
2014-Nov-16 09:28S 23°53' E 151°44'1010.6
2014-Nov-16 08:33S 23°53' E 151°54'183 8.6
2014-Nov-15 11:09S 26°30' E 153°39'610.2
2014-Nov-15 10:33S 26°36' E 153°39'2110.3
2014-Nov-15 08:33S 26°57' E 153°39'1010.3
2014-Nov-15 07:33S 27°07' E 153°39'1010.3
2014-Nov-15 06:33S 27°17' E 153°40'1010.3
2014-Nov-15 05:33S 27°28' E 153°40'1010.2
2014-Nov-15 04:33S 27°38' E 153°41'1110.3
2014-Nov-15 03:30S 27°49' E 153°42'266 8.9
2014-Nov-13 21:32S 32°10' E 152°46'1010.3
2014-Nov-13 20:33S 32°20' E 152°42'1010.0
2014-Nov-13 19:33S 32°29' E 152°38'10 9.5
2014-Nov-13 18:33S 32°36' E 152°31'1111.1
2014-Nov-13 17:33S 32°44' E 152°21'1111.3
2014-Nov-13 16:33S 32°51' E 152°11'1211.8
2014-Nov-13 15:33S 32°55' E 151°58'9 8.9
2014-Nov-13 14:33S 32°55' E 151°47'2 0.2
2014-Nov-13 03:13S 32°54' E 151°46'0 0.0
2014-Nov-12 17:31S 32°54' E 151°46'0 0.0
2014-Nov-12 16:13S 32°54' E 151°46'0 0.0
2014-Nov-12 15:31S 32°54' E 151°46'0 0.0
2014-Nov-12 14:31S 32°54' E 151°46'0 0.0
2014-Nov-12 13:31S 32°54' E 151°46'0 0.0
2014-Nov-12 12:31S 32°54' E 151°46'0 0.0
2014-Nov-12 11:31S 32°54' E 151°46'0 0.0
2014-Nov-12 10:28S 32°54' E 151°46'0 0.0
2014-Nov-12 09:31S 32°54' E 151°46'0 0.0
2014-Nov-12 08:25S 32°54' E 151°46'0 0.0
2014-Nov-12 07:31S 32°54' E 151°46'0 0.0
2014-Nov-12 06:19S 32°54' E 151°46'0 0.0
2014-Nov-12 05:31S 32°54' E 151°46'0 0.0
2014-Nov-12 04:31S 32°54' E 151°46'0 0.0
2014-Nov-12 03:31S 32°54' E 151°46'0 0.0
2014-Nov-12 02:31S 32°54' E 151°46'0 0.0
2014-Nov-12 01:31S 32°54' E 151°46'0 0.0
2014-Nov-12 00:31S 32°54' E 151°46'0 0.0
2014-Nov-11 23:25S 32°54' E 151°46'0 0.0
2014-Nov-11 22:31S 32°54' E 151°46'0 0.0
2014-Nov-11 21:31S 32°54' E 151°46'0 0.0
2014-Nov-11 20:31S 32°54' E 151°46'0 0.0
2014-Nov-11 19:25S 32°54' E 151°46'0 0.0
2014-Nov-11 18:31S 32°54' E 151°46'0 0.0
2014-Nov-11 17:31S 32°54' E 151°46'0 0.0
2014-Nov-11 16:31S 32°54' E 151°46'0 0.0
2014-Nov-11 15:19S 32°54' E 151°46'0 0.0
2014-Nov-11 14:31S 32°54' E 151°46'0 0.0
2014-Nov-11 13:31S 32°54' E 151°46'0 0.0
2014-Nov-11 12:31S 32°54' E 151°46'0 0.0
2014-Nov-11 11:31S 32°54' E 151°46'0 0.0
2014-Nov-11 10:31S 32°54' E 151°46'0 0.0
2014-Nov-11 09:31S 32°54' E 151°46'0 0.0
2014-Nov-11 08:31S 32°54' E 151°46'0 0.0
2014-Nov-11 07:28S 32°54' E 151°46'0 0.0
2014-Nov-11 06:10S 32°54' E 151°46'0 0.0
2014-Nov-11 05:25S 32°54' E 151°46'0 0.0
2014-Nov-11 04:31S 32°54' E 151°46'0 0.0
2014-Nov-11 03:13S 32°54' E 151°46'0 0.0
2014-Nov-11 02:25S 32°54' E 151°46'0 0.0
2014-Nov-11 01:31S 32°54' E 151°46'0 0.0
2014-Nov-11 00:25S 32°54' E 151°46'0 0.0
2014-Nov-10 22:31S 32°54' E 151°46'0 0.0
2014-Nov-10 20:22S 32°54' E 151°46'0 0.0
2014-Nov-10 18:31S 32°54' E 151°46'0 0.0
2014-Nov-10 17:28S 32°54' E 151°46'0 0.0
2014-Nov-10 15:31S 32°54' E 151°46'0 0.0
2014-Nov-10 14:31S 32°54' E 151°46'0 0.0
2014-Nov-10 13:31S 32°54' E 151°46'0 0.0
2014-Nov-10 12:25S 32°54' E 151°46'0 0.0
2014-Nov-10 11:31S 32°54' E 151°46'0 0.0
2014-Nov-10 10:31S 32°54' E 151°46'0 0.0
2014-Nov-10 09:25S 32°54' E 151°46'0 0.0
2014-Nov-10 08:31S 32°54' E 151°46'0 0.0
2014-Nov-10 07:31S 32°54' E 151°46'0 0.0
2014-Nov-10 06:19S 32°54' E 151°46'0 0.0
2014-Nov-10 05:19S 32°54' E 151°46'0 0.0
2014-Nov-10 04:31S 32°54' E 151°46'0 0.0
2014-Nov-10 03:31S 32°54' E 151°46'0 0.0
2014-Nov-10 02:31S 32°54' E 151°46'0 0.0
2014-Nov-10 01:31S 32°54' E 151°46'0 0.0
2014-Nov-10 00:31S 32°54' E 151°46'0 0.0
2014-Nov-09 23:31S 32°54' E 151°46'0 0.0
2014-Nov-09 22:31S 32°54' E 151°46'0 0.0
2014-Nov-09 21:31S 32°54' E 151°46'0 0.0
2014-Nov-09 20:31S 32°54' E 151°46'0 0.0
2014-Nov-09 19:31S 32°54' E 151°46'0 0.3
2014-Nov-09 18:32S 32°54' E 151°46'5 4.9
2014-Nov-09 17:33S 32°56' E 151°51'6 6.3
2014-Nov-09 16:32S 32°55' E 151°59'1111.3
2014-Nov-09 15:33S 32°50' E 152°11'1312.6
2014-Nov-09 14:33S 32°43' E 152°23'1312.8
2014-Nov-09 13:33S 32°35' E 152°35'4112.3
2014-Nov-09 10:11S 31°60' E 153°00'812.1
2014-Nov-09 09:33S 31°53' E 153°04'1212.1
2014-Nov-09 08:33S 31°41' E 153°08'1212.3
2014-Nov-09 07:33S 31°29' E 153°13'21414.2
2014-Nov-08 16:30S 27°59' E 153°57'1613.3
2014-Nov-08 15:18S 27°43' E 153°56'1013.1
2014-Nov-08 14:32S 27°33' E 153°55'1313.2
2014-Nov-08 13:33S 27°20' E 153°53'1313.1
2014-Nov-08 12:34S 27°07' E 153°51'1312.5
2014-Nov-08 11:31S 26°54' E 153°50'1111.8
2014-Nov-08 10:33S 26°43' E 153°49'1211.6
2014-Nov-08 09:33S 26°31' E 153°48'1211.8
2014-Nov-08 08:33S 26°19' E 153°46'1211.7
2014-Nov-08 07:33S 26°08' E 153°45'1211.9
2014-Nov-08 06:33S 25°56' E 153°44'1312.3
2014-Nov-08 05:32S 25°43' E 153°42'1212.2
2014-Nov-08 04:32S 25°31' E 153°41'  

Dump ship's entire track history